createdAt,value
2018-04-16T00:00:59.835Z,90.51
2018-04-16T00:03:27.324Z,90.33
2018-04-16T00:05:54.296Z,90.35
2018-04-16T00:08:21.156Z,90.34
2018-04-16T00:10:49.024Z,90.49
2018-04-16T00:13:16.663Z,90.42
2018-04-16T00:15:43.557Z,90.31
2018-04-16T00:18:10.614Z,90.43
2018-04-16T00:20:37.548Z,90.50
2018-04-16T00:23:04.492Z,90.69
2018-04-16T00:25:31.534Z,90.59
2018-04-16T00:27:58.472Z,90.66
2018-04-16T00:30:25.474Z,90.56
2018-04-16T00:32:58.547Z,90.50
2018-04-16T00:35:31.412Z,90.37
2018-04-16T00:38:04.409Z,90.40
2018-04-16T00:40:37.231Z,90.42
2018-04-16T00:43:10.193Z,90.47
2018-04-16T00:45:43.189Z,89.85
2018-04-16T00:48:16.417Z,89.55
2018-04-16T00:50:50.001Z,89.63
2018-04-16T00:53:22.865Z,89.83
2018-04-16T00:55:55.870Z,89.80
2018-04-16T00:58:28.976Z,90.00
2018-04-16T01:01:01.940Z,90.12
2018-04-16T01:03:35.043Z,90.10
2018-04-16T01:06:07.990Z,90.22
2018-04-16T01:08:40.984Z,90.28
2018-04-16T01:11:13.920Z,90.38
2018-04-16T01:13:46.804Z,90.41
2018-04-16T01:16:19.666Z,90.36
2018-04-16T01:18:52.925Z,90.34
2018-04-16T01:21:25.821Z,90.01
2018-04-16T01:23:58.871Z,89.60
2018-04-16T01:26:32.733Z,89.64
2018-04-16T01:29:05.809Z,89.76
2018-04-16T01:31:38.840Z,90.02
2018-04-16T01:34:12.117Z,90.13
2018-04-16T01:36:44.896Z,90.22
2018-04-16T01:39:17.770Z,90.35
2018-04-16T01:41:50.587Z,90.38
2018-04-16T01:44:23.464Z,90.45
2018-04-16T01:46:56.480Z,90.31
2018-04-16T01:49:29.502Z,89.90
2018-04-16T01:52:02.434Z,89.73
2018-04-16T01:54:35.426Z,89.83
2018-04-16T01:57:08.344Z,90.15
2018-04-16T01:59:42.115Z,90.33
2018-04-16T02:02:15.088Z,90.14
2018-04-16T02:04:48.089Z,90.16
2018-04-16T02:07:21.068Z,90.03
2018-04-16T02:09:54.108Z,90.04
2018-04-16T02:12:27.862Z,90.03
2018-04-16T02:15:00.995Z,89.93
2018-04-16T02:17:34.702Z,90.12
2018-04-16T02:23:08.042Z,89.66
2018-04-16T02:25:41.262Z,89.75
2018-04-16T02:28:14.310Z,90.01
2018-04-16T02:30:47.264Z,90.10
2018-04-16T02:33:20.226Z,89.90
2018-04-16T02:35:53.145Z,89.76
2018-04-16T02:41:27.692Z,89.65
2018-04-16T02:44:00.677Z,89.60
2018-04-16T02:46:33.541Z,89.64
2018-04-16T02:49:06.510Z,89.92
2018-04-16T02:51:39.616Z,89.87
2018-04-16T02:54:13.489Z,89.28
2018-04-16T02:56:46.668Z,89.10
2018-04-16T02:59:20.418Z,89.49
2018-04-16T03:01:53.572Z,89.86
2018-04-16T03:04:26.482Z,90.09
2018-04-16T03:06:59.544Z,89.64
2018-04-16T03:09:33.100Z,89.56
2018-04-16T03:12:06.193Z,89.86
2018-04-16T03:14:39.108Z,89.62
2018-04-16T03:17:12.464Z,89.59
2018-04-16T03:19:45.294Z,89.48
2018-04-16T03:22:19.218Z,89.89
2018-04-16T03:24:52.885Z,90.13
2018-04-16T03:27:25.794Z,90.31
2018-04-16T03:29:58.785Z,90.56
2018-04-16T03:32:32.602Z,90.78
2018-04-16T03:35:05.488Z,90.94
2018-04-16T03:37:39.285Z,91.04
2018-04-16T03:40:12.113Z,90.81
2018-04-16T03:42:45.216Z,90.98
2018-04-16T03:45:18.281Z,90.68
2018-04-16T03:47:51.194Z,90.52
2018-04-16T03:50:24.239Z,90.12
2018-04-16T03:52:58.108Z,89.76
2018-04-16T03:55:28.005Z,90.54
2018-04-16T03:57:55.651Z,91.46
2018-04-16T04:00:22.771Z,91.22
2018-04-16T04:02:50.441Z,91.07
2018-04-16T04:05:18.118Z,91.04
2018-04-16T04:07:45.059Z,91.11
2018-04-16T04:10:11.940Z,91.20
2018-04-16T04:12:38.848Z,91.12
2018-04-16T04:15:05.801Z,90.93
2018-04-16T04:17:32.697Z,90.92
2018-04-16T04:19:59.571Z,91.33
2018-04-16T04:22:45.845Z,91.29
2018-04-16T04:25:31.159Z,91.37
2018-04-16T04:28:17.220Z,91.45
2018-04-16T04:30:44.208Z,91.61
2018-04-16T04:33:11.121Z,91.64
2018-04-16T04:35:38.038Z,91.80
2018-04-16T04:38:04.915Z,91.88
2018-04-16T04:40:31.796Z,91.84
2018-04-16T04:42:58.820Z,91.80
2018-04-16T04:45:26.504Z,91.97
2018-04-16T04:47:53.373Z,92.05
2018-04-16T04:50:20.318Z,91.94
2018-04-16T04:52:47.294Z,91.84
2018-04-16T04:55:14.506Z,91.43
2018-04-16T04:57:41.476Z,91.92
2018-04-16T05:00:08.412Z,91.65
2018-04-16T05:02:35.348Z,91.28
2018-04-16T05:05:02.408Z,91.22
2018-04-16T05:07:29.288Z,91.02
2018-04-16T05:09:56.162Z,90.74
2018-04-16T05:12:23.927Z,90.68
2018-04-16T05:14:51.573Z,91.07
2018-04-16T05:17:18.453Z,91.10
2018-04-16T05:19:45.412Z,91.48
2018-04-16T05:22:12.303Z,91.44
2018-04-16T05:24:39.180Z,91.44
2018-04-16T05:27:06.931Z,91.51
2018-04-16T05:29:34.602Z,91.38
2018-04-16T05:32:02.301Z,90.80
2018-04-16T05:34:29.221Z,90.74
2018-04-16T05:36:56.137Z,90.76
2018-04-16T05:39:23.032Z,90.07
2018-04-16T05:41:50.392Z,89.61
2018-04-16T05:44:17.275Z,89.18
2018-04-16T05:46:44.178Z,89.58
2018-04-16T05:49:11.201Z,89.39
2018-04-16T05:51:38.860Z,89.35
2018-04-16T05:54:06.875Z,89.36
2018-04-16T05:56:33.804Z,89.11
2018-04-16T05:59:00.676Z,88.63
2018-04-16T06:01:27.552Z,88.12
2018-04-16T06:03:54.569Z,87.95
2018-04-16T06:06:21.440Z,88.00
2018-04-16T06:08:48.353Z,87.81
2018-04-16T06:11:15.364Z,87.67
2018-04-16T06:13:42.255Z,86.95
2018-04-16T06:16:09.220Z,86.84
2018-04-16T06:18:36.195Z,86.92
2018-04-16T06:21:03.825Z,87.16
2018-04-16T06:23:30.713Z,87.24
2018-04-16T06:25:57.675Z,86.73
2018-04-16T06:28:24.570Z,87.14
2018-04-16T06:30:51.508Z,86.81
2018-04-16T06:33:18.631Z,87.14
2018-04-16T06:35:45.562Z,86.54
2018-04-16T06:38:12.440Z,86.17
2018-04-16T06:40:39.449Z,85.85
2018-04-16T06:43:06.388Z,85.28
2018-04-16T06:45:33.310Z,84.66
2018-04-16T06:48:01.025Z,84.94
2018-04-16T06:50:27.906Z,84.58
2018-04-16T06:52:54.789Z,83.58
2018-04-16T06:55:21.920Z,83.11
2018-04-16T06:57:49.543Z,82.10
2018-04-16T07:00:16.456Z,81.39
2018-04-16T07:02:43.584Z,82.72
2018-04-16T07:05:11.280Z,83.41
2018-04-16T07:07:38.160Z,82.55
2018-04-16T07:10:05.305Z,81.30
2018-04-16T07:12:32.175Z,80.33
2018-04-16T07:14:59.811Z,80.86
2018-04-16T07:17:26.888Z,82.04
2018-04-16T07:19:53.862Z,83.74
2018-04-16T07:22:20.765Z,81.68
2018-04-16T07:24:47.942Z,82.61
2018-04-16T07:27:15.650Z,83.12
2018-04-16T07:29:42.539Z,82.92
2018-04-16T07:32:09.573Z,80.67
2018-04-16T07:34:36.548Z,78.31
2018-04-16T07:37:03.481Z,77.06
2018-04-16T07:39:30.496Z,78.85
2018-04-16T07:41:57.368Z,79.73
2018-04-16T07:44:24.251Z,79.22
2018-04-16T07:46:51.165Z,77.19
2018-04-16T07:49:18.092Z,77.81
2018-04-16T07:51:44.959Z,76.46
2018-04-16T07:54:12.025Z,75.77
2018-04-16T07:56:39.640Z,76.41
2018-04-16T07:59:07.300Z,78.52
2018-04-16T08:01:34.368Z,79.64
2018-04-16T08:04:01.270Z,76.57
2018-04-16T08:06:28.145Z,75.45
2018-04-16T08:08:55.170Z,73.67
2018-04-16T08:11:22.140Z,72.38
2018-04-16T08:13:49.028Z,70.24
2018-04-16T08:16:16.884Z,74.20
2018-04-16T08:18:43.763Z,72.91
2018-04-16T08:21:10.628Z,70.90
2018-04-16T08:23:37.617Z,72.03
2018-04-16T08:26:04.502Z,71.43
2018-04-16T08:28:31.460Z,71.46
2018-04-16T08:30:58.478Z,70.68
2018-04-16T08:33:25.420Z,71.05
2018-04-16T08:35:53.133Z,73.21
2018-04-16T08:38:20.968Z,71.30
2018-04-16T08:40:47.893Z,69.03
2018-04-16T08:43:15.507Z,66.67
2018-04-16T08:45:42.653Z,67.09
2018-04-16T08:48:09.595Z,66.70
2018-04-16T08:50:37.274Z,65.88
2018-04-16T08:53:04.408Z,65.88
2018-04-16T08:55:31.314Z,64.55
2018-04-16T08:57:58.946Z,64.52
2018-04-16T09:00:26.069Z,63.64
2018-04-16T09:02:52.949Z,64.54
2018-04-16T09:05:19.940Z,64.21
2018-04-16T09:07:46.856Z,63.77
2018-04-16T09:10:13.743Z,62.09
2018-04-16T09:12:40.628Z,61.66
2018-04-16T09:15:07.629Z,61.43
2018-04-16T09:17:34.633Z,58.68
2018-04-16T09:20:01.529Z,57.57
2018-04-16T09:22:28.477Z,57.30
2018-04-16T09:24:55.352Z,55.76
2018-04-16T09:27:22.298Z,56.89
2018-04-16T09:29:49.585Z,56.91
2018-04-16T09:32:16.448Z,58.47
2018-04-16T09:34:44.073Z,58.43
2018-04-16T09:37:11.193Z,59.13
2018-04-16T09:39:38.099Z,58.76
2018-04-16T09:42:05.773Z,58.99
2018-04-16T09:44:32.896Z,60.05
2018-04-16T09:46:59.768Z,60.37
2018-04-16T09:49:26.741Z,58.45
2018-04-16T09:51:53.840Z,60.25
2018-04-16T09:54:20.786Z,59.33
2018-04-16T09:56:47.723Z,56.88
2018-04-16T09:59:14.700Z,58.96
2018-04-16T10:01:42.352Z,60.62
2018-04-16T10:04:09.973Z,59.30
2018-04-16T10:06:37.852Z,58.91
2018-04-16T10:09:05.843Z,59.92
2018-04-16T10:11:32.804Z,59.03
2018-04-16T10:14:00.632Z,59.43
2018-04-16T10:16:27.514Z,60.48
2018-04-16T10:18:55.141Z,60.20
2018-04-16T10:21:22.168Z,59.92
2018-04-16T10:23:49.044Z,60.12
2018-04-16T10:26:15.922Z,59.85
2018-04-16T10:28:43.597Z,60.10
2018-04-16T10:31:10.603Z,59.97
2018-04-16T10:33:37.920Z,59.19
2018-04-16T10:36:05.257Z,59.47
2018-04-16T10:38:32.193Z,59.60
2018-04-16T10:40:59.153Z,59.93
2018-04-16T10:43:26.817Z,60.35
2018-04-16T10:45:53.702Z,60.38
2018-04-16T10:48:20.584Z,60.76
2018-04-16T10:50:48.294Z,61.46
2018-04-16T10:53:15.907Z,62.33
2018-04-16T10:55:43.538Z,61.01
2018-04-16T10:58:11.437Z,60.52
2018-04-16T11:00:39.057Z,60.67
2018-04-16T11:03:05.996Z,59.57
2018-04-16T11:05:33.852Z,58.91
2018-04-16T11:08:00.720Z,58.22
2018-04-16T11:10:27.700Z,54.72
2018-04-16T11:12:54.702Z,56.04
2018-04-16T11:15:21.585Z,54.34
2018-04-16T11:17:48.505Z,55.13
2018-04-16T11:20:15.527Z,55.44
2018-04-16T11:22:42.450Z,55.90
2018-04-16T11:25:09.588Z,55.75
2018-04-16T11:27:37.363Z,55.27
2018-04-16T11:30:05.084Z,54.94
2018-04-16T11:32:32.070Z,55.10
2018-04-16T11:34:59.084Z,56.19
2018-04-16T11:37:26.860Z,56.10
2018-04-16T11:39:53.752Z,55.00
2018-04-16T11:42:20.734Z,52.01
2018-04-16T11:44:52.529Z,52.65
2018-04-16T11:47:19.395Z,53.09
2018-04-16T11:49:47.357Z,51.98
2018-04-16T11:52:14.341Z,53.28
2018-04-16T11:54:41.348Z,53.57
2018-04-16T11:57:08.345Z,52.01
2018-04-16T11:59:35.234Z,50.83
2018-04-16T12:02:02.124Z,51.24
2018-04-16T12:04:29.312Z,52.47
2018-04-16T12:06:56.127Z,51.87
2018-04-16T12:09:22.992Z,53.61
2018-04-16T12:11:50.690Z,55.36
2018-04-16T12:14:17.610Z,56.79
2018-04-16T12:16:44.485Z,56.97
2018-04-16T12:19:12.176Z,56.70
2018-04-16T12:21:39.058Z,56.24
2018-04-16T12:24:05.984Z,57.46
2018-04-16T12:26:32.999Z,59.22
2018-04-16T12:29:00.610Z,60.48
2018-04-16T12:31:27.521Z,60.79
2018-04-16T12:33:54.636Z,61.16
2018-04-16T12:36:21.508Z,63.09
2018-04-16T12:38:48.420Z,61.57
2018-04-16T12:41:15.435Z,60.82
2018-04-16T12:43:42.313Z,60.59
2018-04-16T12:46:09.237Z,60.84
2018-04-16T12:48:36.253Z,61.42
2018-04-16T12:51:03.138Z,61.66
2018-04-16T12:53:30.018Z,63.62
2018-04-16T12:55:57.896Z,64.09
2018-04-16T12:58:25.574Z,65.85
2018-04-16T13:00:52.469Z,67.34
2018-04-16T13:03:19.485Z,68.17
2018-04-16T13:05:46.369Z,69.22
2018-04-16T13:08:13.348Z,71.69
2018-04-16T13:10:40.453Z,72.24
2018-04-16T13:13:07.347Z,71.14
2018-04-16T13:15:34.250Z,71.07
2018-04-16T13:18:01.180Z,71.55
2018-04-16T13:20:28.080Z,69.47
2018-04-16T13:22:54.958Z,70.32
2018-04-16T13:25:21.976Z,68.77
2018-04-16T13:27:48.925Z,65.79
2018-04-16T13:30:15.799Z,66.10
2018-04-16T13:32:42.811Z,62.59
2018-04-16T13:35:10.495Z,62.86
2018-04-16T13:37:37.416Z,60.83
2018-04-16T13:40:05.446Z,60.35
2018-04-16T13:42:32.317Z,60.16
2018-04-16T13:44:59.226Z,59.91
2018-04-16T13:47:26.476Z,59.33
2018-04-16T13:49:53.355Z,59.57
2018-04-16T13:52:20.243Z,59.29
2018-04-16T13:54:47.201Z,59.81
2018-04-16T13:57:14.070Z,59.64
2018-04-16T13:59:40.969Z,59.76
2018-04-16T14:02:07.903Z,59.33
2018-04-16T14:04:35.524Z,58.71
2018-04-16T14:07:02.398Z,59.09
2018-04-16T14:09:29.405Z,59.62
2018-04-16T14:11:56.424Z,59.34
2018-04-16T14:14:23.483Z,59.37
2018-04-16T14:16:50.457Z,58.03
2018-04-16T14:19:17.345Z,59.17
2018-04-16T14:21:44.312Z,58.70
2018-04-16T14:24:11.413Z,60.40
2018-04-16T14:26:38.349Z,60.39
2018-04-16T14:29:05.237Z,60.20
2018-04-16T14:31:33.052Z,59.03
2018-04-16T14:34:00.007Z,58.65
2018-04-16T14:36:26.961Z,57.44
2018-04-16T14:38:54.019Z,58.21
2018-04-16T14:41:20.885Z,58.62
2018-04-16T14:43:48.492Z,58.99
2018-04-16T14:46:15.416Z,60.20
2018-04-16T14:48:42.352Z,61.43
2018-04-16T14:51:09.960Z,61.81
2018-04-16T14:53:37.144Z,61.89
2018-04-16T14:56:04.034Z,62.00
2018-04-16T14:58:30.941Z,61.78
2018-04-16T15:00:58.796Z,61.70
2018-04-16T15:03:25.677Z,61.94
2018-04-16T15:05:52.573Z,61.87
2018-04-16T15:08:19.563Z,62.60
2018-04-16T15:10:47.184Z,61.55
2018-04-16T15:13:14.055Z,62.46
2018-04-16T15:15:42.183Z,62.67
2018-04-16T15:18:09.950Z,63.57
2018-04-16T15:20:36.863Z,64.43
2018-04-16T15:23:03.935Z,64.91
2018-04-16T15:25:30.802Z,65.05
2018-04-16T15:27:57.675Z,65.62
2018-04-16T15:30:24.597Z,65.94
2018-04-16T15:32:51.525Z,65.85
2018-04-16T15:35:18.411Z,65.92
2018-04-16T15:37:45.626Z,65.94
2018-04-16T15:40:12.509Z,65.76
2018-04-16T15:42:39.379Z,65.55
2018-04-16T15:45:07.040Z,65.06
2018-04-16T15:47:33.992Z,64.17
2018-04-16T15:50:00.926Z,64.23
2018-04-16T15:52:28.677Z,63.53
2018-04-16T15:54:56.328Z,62.72
2018-04-16T15:57:23.200Z,63.14
2018-04-16T15:59:51.048Z,63.65
2018-04-16T16:02:17.947Z,61.06
2018-04-16T16:04:44.868Z,60.43
2018-04-16T16:07:11.785Z,61.11
2018-04-16T16:09:39.465Z,61.05
2018-04-16T16:12:07.087Z,60.41
2018-04-16T16:14:34.152Z,60.47
2018-04-16T16:17:01.018Z,60.92
2018-04-16T16:19:28.625Z,62.56
2018-04-16T16:21:55.539Z,64.09
2018-04-16T16:24:22.411Z,64.93
2018-04-16T16:26:49.279Z,66.67
2018-04-16T16:29:16.204Z,66.31
2018-04-16T16:31:43.961Z,67.08
2018-04-16T16:34:10.828Z,67.61
2018-04-16T16:36:38.482Z,67.95
2018-04-16T16:39:05.493Z,67.74
2018-04-16T16:41:33.147Z,68.62
2018-04-16T16:44:00.957Z,68.52
2018-04-16T16:46:27.888Z,69.15
2018-04-16T16:48:54.764Z,69.85
2018-04-16T16:51:21.850Z,70.14
2018-04-16T16:53:48.717Z,69.63
2018-04-16T16:56:15.610Z,69.56
2018-04-16T16:58:42.676Z,69.38
2018-04-16T17:01:10.316Z,69.65
2018-04-16T17:03:37.260Z,69.18
2018-04-16T17:06:04.404Z,69.47
2018-04-16T17:08:31.281Z,69.85
2018-04-16T17:10:58.160Z,70.33
2018-04-16T17:13:25.105Z,70.42
2018-04-16T17:15:52.005Z,70.74
2018-04-16T17:18:18.995Z,71.11
2018-04-16T17:20:45.977Z,71.69
2018-04-16T17:23:12.843Z,71.57
2018-04-16T17:25:40.529Z,71.85
2018-04-16T17:28:07.686Z,71.85
2018-04-16T17:30:35.303Z,71.99
2018-04-16T17:33:02.260Z,72.43
2018-04-16T17:35:29.223Z,72.47
2018-04-16T17:37:56.141Z,72.65
2018-04-16T17:40:23.080Z,71.80
2018-04-16T17:42:50.303Z,71.80
2018-04-16T17:45:17.219Z,71.47
2018-04-16T17:47:44.153Z,71.62
2018-04-16T17:50:11.226Z,71.68
2018-04-16T17:52:38.853Z,72.02
2018-04-16T17:55:05.742Z,72.21
2018-04-16T17:57:33.417Z,72.70
2018-04-16T18:00:00.302Z,72.79
2018-04-16T18:02:27.182Z,72.54
2018-04-16T18:04:54.335Z,72.66
2018-04-16T18:07:21.201Z,72.84
2018-04-16T18:09:48.990Z,73.12
2018-04-16T18:12:16.112Z,73.55
2018-04-16T18:14:43.846Z,73.42
2018-04-16T18:17:10.696Z,72.71
2018-04-16T18:19:37.861Z,72.53
2018-04-16T18:22:04.734Z,71.89
2018-04-16T18:24:31.601Z,71.84
2018-04-16T18:26:58.703Z,72.26
2018-04-16T18:29:26.376Z,72.20
2018-04-16T18:31:53.980Z,72.41
2018-04-16T18:34:21.076Z,72.54
2018-04-16T18:36:47.992Z,72.72
2018-04-16T18:39:14.927Z,72.95
2018-04-16T18:41:41.864Z,73.37
2018-04-16T18:44:08.839Z,73.53
2018-04-16T18:46:35.798Z,73.74
2018-04-16T18:49:02.921Z,74.05
2018-04-16T18:51:29.830Z,73.92
2018-04-16T18:53:56.757Z,74.14
2018-04-16T18:56:23.902Z,74.37
2018-04-16T18:58:50.822Z,74.36
2018-04-16T19:01:17.726Z,74.47
2018-04-16T19:03:44.779Z,74.71
2018-04-16T19:06:11.655Z,74.56
2018-04-16T19:08:38.533Z,74.85
2018-04-16T19:11:05.749Z,74.52
2018-04-16T19:13:32.658Z,74.46
2018-04-16T19:15:59.646Z,74.86
2018-04-16T19:18:26.682Z,74.68
2018-04-16T19:20:59.585Z,74.79
2018-04-16T19:23:27.235Z,75.19
2018-04-16T19:25:54.133Z,75.21
2018-04-16T19:28:21.770Z,75.00
2018-04-16T19:30:48.834Z,75.28
2018-04-16T19:33:21.850Z,74.88
2018-04-16T19:35:48.909Z,74.90
2018-04-16T19:38:16.085Z,75.15
2018-04-16T19:40:42.982Z,75.17
2018-04-16T19:43:10.594Z,75.24
2018-04-16T19:45:37.633Z,75.49
2018-04-16T19:48:04.553Z,75.57
2018-04-16T19:50:31.424Z,75.60
2018-04-16T19:52:58.472Z,75.72
2018-04-16T19:55:25.436Z,75.97
2018-04-16T19:57:58.401Z,75.83
2018-04-16T20:00:25.515Z,76.03
2018-04-16T20:02:59.296Z,76.11
2018-04-16T20:05:26.347Z,76.13
2018-04-16T20:07:53.230Z,76.09
2018-04-16T20:10:20.108Z,76.15
2018-04-16T20:12:47.210Z,76.46
2018-04-16T20:15:14.826Z,76.37
2018-04-16T20:17:41.707Z,76.76
2018-04-16T20:20:09.524Z,77.04
2018-04-16T20:22:36.405Z,77.22
2018-04-16T20:25:03.317Z,77.50
2018-04-16T20:27:30.335Z,77.58
2018-04-16T20:29:57.977Z,77.96
2018-04-16T20:32:24.852Z,78.44
2018-04-16T20:34:51.985Z,78.71
2018-04-16T20:37:19.639Z,79.33
2018-04-16T20:39:47.259Z,79.44
2018-04-16T20:42:14.594Z,79.56
2018-04-16T20:44:47.430Z,79.50
2018-04-16T20:47:14.408Z,79.47
2018-04-16T20:49:41.536Z,79.67
2018-04-16T20:52:08.409Z,79.08
2018-04-16T20:54:35.302Z,79.47
2018-04-16T20:57:02.353Z,79.83
2018-04-16T20:59:29.263Z,79.90
2018-04-16T21:01:56.130Z,79.70
2018-04-16T21:04:23.145Z,79.92
2018-04-16T21:06:50.072Z,79.39
2018-04-16T21:09:17.006Z,79.87
2018-04-16T21:11:44.117Z,80.09
2018-04-16T21:14:10.983Z,79.89
2018-04-16T21:16:37.908Z,80.09
2018-04-16T21:19:05.057Z,80.12
2018-04-16T21:21:32.028Z,80.29
2018-04-16T21:23:59.169Z,80.60
2018-04-16T21:26:27.013Z,80.58
2018-04-16T21:28:53.905Z,80.94
2018-04-16T21:31:20.833Z,80.93
2018-04-16T21:33:47.908Z,80.95
2018-04-16T21:36:15.585Z,80.93
2018-04-16T21:38:42.575Z,81.13
2018-04-16T21:41:10.430Z,80.64
2018-04-16T21:43:37.311Z,80.52
2018-04-16T21:46:04.292Z,80.64
2018-04-16T21:48:32.078Z,81.06
2018-04-16T21:50:59.055Z,80.64
2018-04-16T21:53:26.008Z,80.83
2018-04-16T21:55:53.072Z,81.00
2018-04-16T21:58:19.948Z,81.23
2018-04-16T22:00:47.621Z,81.19
2018-04-16T22:03:14.748Z,81.20
2018-04-16T22:05:41.678Z,81.51
2018-04-16T22:08:08.552Z,81.93
2018-04-16T22:10:36.342Z,82.02
2018-04-16T22:13:03.286Z,82.34
2018-04-16T22:15:30.161Z,82.21
2018-04-16T22:17:57.248Z,82.38
2018-04-16T22:20:24.860Z,82.49
2018-04-16T22:22:51.745Z,82.62
2018-04-16T22:25:18.763Z,82.63
2018-04-16T22:27:45.635Z,82.77
2018-04-16T22:30:12.556Z,82.98
2018-04-16T22:32:39.465Z,83.19
2018-04-16T22:35:06.343Z,83.33
2018-04-16T22:37:33.276Z,83.47
2018-04-16T22:40:00.372Z,83.67
2018-04-16T22:42:27.263Z,83.91
2018-04-16T22:44:54.157Z,83.96
2018-04-16T22:47:21.185Z,83.84
2018-04-16T22:49:48.061Z,84.10
2018-04-16T22:52:15.796Z,83.78
2018-04-16T22:54:42.708Z,84.10
2018-04-16T22:57:09.588Z,83.97
2018-04-16T22:59:36.452Z,83.39
2018-04-16T23:02:03.677Z,83.48
2018-04-16T23:04:30.904Z,83.32
2018-04-16T23:06:57.849Z,83.50
2018-04-16T23:09:24.865Z,83.54
2018-04-16T23:11:51.787Z,83.69
2018-04-16T23:14:18.668Z,83.38
2018-04-16T23:16:46.400Z,82.92
2018-04-16T23:19:13.332Z,82.33
2018-04-16T23:21:40.207Z,82.33
2018-04-16T23:24:08.086Z,82.39
2018-04-16T23:26:35.680Z,82.84
2018-04-16T23:29:02.563Z,82.17
2018-04-16T23:31:29.628Z,82.20
2018-04-16T23:33:56.511Z,82.68
2018-04-16T23:36:23.434Z,82.81
2018-04-16T23:38:50.736Z,82.72
2018-04-16T23:41:17.614Z,83.12
2018-04-16T23:43:44.493Z,82.34
2018-04-16T23:46:11.544Z,82.31
2018-04-16T23:48:38.504Z,81.91
2018-04-16T23:51:05.390Z,81.60
2018-04-16T23:53:32.357Z,82.14
2018-04-16T23:55:59.228Z,82.28
2018-04-16T23:58:26.164Z,82.28
